Time;durP1;ratioP1;P1;durP2;ratioP2;P2;SDS_P1;SDS_P2;PMS_P1;PMS_P2;Temp;Humidity;BMP_temperature;BMP_pressure;BME280_temperature;BME280_humidity;BME280_pressure;Samples;Min_cycle;Max_cycle;Signal;HPM_P1;HPM_P2
2023/10/19 00:00:21;;;;;;;31.50;20.10;;;;;;;0.78;81.22;100153.17;109465;274;38609;-66
2023/10/19 00:03:18;;;;;;;26.00;18.60;;;;;;;0.75;81.28;100149.90;109429;274;38668;-69
2023/10/19 00:05:59;;;;;;;25.70;17.80;;;;;;;0.73;81.16;100145.45;109422;274;40384;-68
2023/10/19 00:08:41;;;;;;;29.20;19.40;;;;;;;0.71;81.29;100143.73;109428;274;39397;-70
2023/10/19 00:11:23;;;;;;;27.60;19.00;;;;;;;0.72;81.44;100134.80;109397;274;39371;-70
2023/10/19 00:13:59;;;;;;;28.40;19.50;;;;;;;0.73;81.64;100130.85;109426;274;39157;-70
2023/10/19 00:16:35;;;;;;;31.80;20.30;;;;;;;0.74;81.80;100128.28;109481;274;38439;-71
2023/10/19 00:19:21;;;;;;;29.50;19.60;;;;;;;0.74;81.93;100122.78;109432;274;38360;-67
2023/10/19 00:22:08;;;;;;;28.90;19.70;;;;;;;0.73;81.82;100118.33;109403;274;38402;-68
2023/10/19 00:24:47;;;;;;;28.60;19.50;;;;;;;0.71;81.84;100118.33;109438;274;38906;-70
2023/10/19 00:27:23;;;;;;;28.60;18.50;;;;;;;0.72;81.89;100121.58;109455;274;39290;-71
2023/10/19 00:30:06;;;;;;;28.90;18.70;;;;;;;0.74;81.93;100118.33;109435;274;38267;-70
2023/10/19 00:32:42;;;;;;;27.70;20.20;;;;;;;0.75;82.07;100119.00;109468;274;38868;-70
2023/10/19 00:35:29;;;;;;;28.10;19.80;;;;;;;0.76;82.28;100114.37;109289;274;176022;-72
2023/10/19 00:41:05;;;;;;;28.60;18.90;;;;;;;0.72;82.34;100110.27;109415;274;38163;-67
2023/10/19 00:43:44;;;;;;;24.40;17.60;;;;;;;0.71;82.35;100114.20;109404;274;38474;-66
2023/10/19 00:46:31;;;;;;;26.20;18.20;;;;;;;0.71;82.13;100115.92;109411;274;38506;-66
2023/10/19 00:49:17;;;;;;;28.00;18.50;;;;;;;0.71;82.19;100111.45;109404;274;39345;-67
2023/10/19 00:52:03;;;;;;;26.70;18.30;;;;;;;0.68;82.06;100110.77;109384;267;39669;-67
2023/10/19 00:54:51;;;;;;;28.20;19.10;;;;;;;0.65;81.92;100108.90;109625;274;39661;-71
2023/10/19 00:57:33;;;;;;;27.50;19.70;;;;;;;0.59;81.90;100103.75;109596;274;40169;-71
2023/10/19 01:00:21;;;;;;;31.90;21.80;;;;;;;0.57;82.30;100097.08;109615;274;40132;-67
2023/10/19 01:03:04;;;;;;;35.80;23.20;;;;;;;0.56;82.46;100093.63;109621;274;38434;-66
2023/10/19 01:05:40;;;;;;;35.60;23.00;;;;;;;0.57;82.44;100091.57;109616;274;38327;-69
2023/10/19 01:08:25;;;;;;;37.10;23.50;;;;;;;0.55;82.21;100089.17;109608;274;38479;-70
2023/10/19 01:11:06;;;;;;;33.50;23.20;;;;;;;0.53;82.19;100081.45;109534;274;38468;-67
2023/10/19 01:13:44;;;;;;;36.40;23.00;;;;;;;0.54;82.33;100079.39;109557;274;40175;-68
2023/10/19 01:16:27;;;;;;;35.00;23.20;;;;;;;0.57;82.33;100073.90;109414;274;39392;-67
2023/10/19 01:19:06;;;;;;;32.60;21.90;;;;;;;0.55;82.40;100073.04;109585;274;38236;-70
2023/10/19 01:21:46;;;;;;;29.20;20.80;;;;;;;0.54;82.32;100072.17;109510;274;38472;-70
2023/10/19 01:24:27;;;;;;;31.20;21.10;;;;;;;0.55;82.43;100072.52;109643;274;38462;-71
2023/10/19 01:27:03;;;;;;;33.50;22.00;;;;;;;0.57;82.52;100070.29;109636;274;38285;-69
2023/10/19 01:29:41;;;;;;;34.40;24.10;;;;;;;0.61;82.59;100067.71;109607;274;38992;-67
2023/10/19 01:32:16;;;;;;;35.90;22.80;;;;;;;0.62;82.65;100065.30;109568;274;38582;-66
2023/10/19 01:34:56;;;;;;;34.20;22.50;;;;;;;0.62;82.43;100059.63;109651;274;38266;-70
2023/10/19 01:37:31;;;;;;;33.80;23.60;;;;;;;0.60;82.20;100059.64;109543;274;173251;-68
2023/10/19 01:40:15;;;;;;;35.20;22.90;;;;;;;0.58;82.29;100058.44;109660;274;38427;-67
2023/10/19 01:42:59;;;;;;;32.00;23.20;;;;;;;0.58;82.49;100054.33;109628;274;38333;-67
2023/10/19 01:45:42;;;;;;;32.70;21.40;;;;;;;0.58;82.59;100053.63;109663;274;38457;-66
2023/10/19 01:48:33;;;;;;;30.60;20.80;;;;;;;0.57;82.48;100046.77;109582;274;38597;-66
2023/10/19 01:51:14;;;;;;;28.40;19.30;;;;;;;0.57;82.60;100043.17;109610;274;38536;-66
2023/10/19 01:53:55;;;;;;;29.10;20.10;;;;;;;0.57;82.44;100041.80;109422;274;39325;-70
2023/10/19 01:56:33;;;;;;;30.80;20.80;;;;;;;0.57;82.45;100045.75;109655;274;39723;-70
2023/10/19 01:59:08;;;;;;;32.30;21.10;;;;;;;0.53;82.33;100038.54;109638;274;38279;-66
2023/10/19 02:01:49;;;;;;;35.60;22.70;;;;;;;0.52;82.55;100040.09;109547;274;38253;-66
2023/10/19 02:04:29;;;;;;;33.20;20.60;;;;;;;0.50;82.58;100038.55;109637;274;40407;-67
2023/10/19 02:07:12;;;;;;;31.20;19.30;;;;;;;0.48;82.49;100036.67;109393;274;40062;-66
2023/10/19 02:09:47;;;;;;;27.90;19.50;;;;;;;0.46;82.63;100038.91;109617;274;38272;-71
2023/10/19 02:12:23;;;;;;;30.00;20.20;;;;;;;0.46;82.65;100037.53;109571;274;38501;-71
2023/10/19 02:15:04;;;;;;;28.70;20.30;;;;;;;0.47;82.81;100034.96;109552;274;39610;-67
2023/10/19 02:17:44;;;;;;;30.70;21.30;;;;;;;0.47;82.94;100029.98;109624;274;39527;-71
2023/10/19 02:20:24;;;;;;;31.70;20.40;;;;;;;0.45;82.91;100025.02;109530;274;40227;-72
2023/10/19 02:23:03;;;;;;;27.70;18.80;;;;;;;0.44;82.90;100023.81;109565;274;38511;-69
2023/10/19 02:25:38;;;;;;;;;;;;;;;0.43;82.96;100026.20;109588;274;38609;-71
2023/10/19 02:28:13;;;;;;;30.00;19.80;;;;;;;0.41;83.20;100024.85;109585;274;40085;-68
2023/10/19 02:30:50;;;;;;;30.10;20.20;;;;;;;0.41;83.03;100021.59;109602;274;38766;-67
2023/10/19 02:33:29;;;;;;;29.70;19.90;;;;;;;0.39;82.96;100017.82;109597;274;38362;-71
2023/10/19 02:36:12;;;;;;;29.10;19.50;;;;;;;0.37;82.83;100010.45;109411;274;39107;-70
2023/10/19 02:38:51;;;;;;;31.20;20.70;;;;;;;0.33;82.81;100009.08;109609;274;39944;-67
2023/10/19 02:41:28;;;;;;;26.90;19.50;;;;;;;0.29;82.82;100008.40;109538;274;38425;-67
2023/10/19 02:44:09;;;;;;;26.90;18.70;;;;;;;0.29;82.90;100006.87;109530;274;38904;-68
2023/10/19 02:46:50;;;;;;;29.70;19.70;;;;;;;0.31;82.91;100010.30;109527;274;39382;-67
2023/10/19 02:49:25;;;;;;;31.70;20.80;;;;;;;0.30;82.90;100002.23;108651;274;875021;-67
2023/10/19 02:52:04;;;;;;;30.10;19.90;;;;;;;0.27;82.73;100000.86;109484;274;38601;-67
2023/10/19 02:54:39;;;;;;;28.60;19.70;;;;;;;0.23;82.77;99996.41;109435;274;38314;-70
2023/10/19 02:57:13;;;;;;;29.20;20.30;;;;;;;0.21;82.84;99995.04;109536;274;39933;-70
2023/10/19 02:59:48;;;;;;;27.90;18.80;;;;;;;0.19;82.84;99989.39;109513;274;39544;-68
2023/10/19 03:02:26;;;;;;;29.70;20.50;;;;;;;0.20;82.85;99987.67;109300;274;175633;-69
2023/10/19 03:05:09;;;;;;;28.70;19.60;;;;;;;0.18;82.84;99989.21;109410;274;38689;-70
2023/10/19 03:07:44;;;;;;;33.10;20.60;;;;;;;0.19;83.10;99984.41;109463;274;38737;-72
2023/10/19 03:10:24;;;;;;;30.60;20.00;;;;;;;0.19;83.24;99979.44;109537;274;39709;-70
2023/10/19 03:13:01;;;;;;;28.90;20.00;;;;;;;0.18;83.16;99979.44;109539;274;38485;-68
2023/10/19 03:15:39;;;;;;;31.00;20.70;;;;;;;0.18;83.29;99977.38;109429;274;38711;-69
2023/10/19 03:18:17;;;;;;;31.10;20.30;;;;;;;0.18;83.39;99974.46;109408;275;38860;-67
2023/10/19 03:21:00;;;;;;;29.40;21.20;;;;;;;0.20;83.38;99971.54;109241;275;189940;-66
2023/10/19 03:23:37;;;;;;;29.50;21.30;;;;;;;0.20;83.21;99971.88;109186;275;40797;-71
2023/10/19 03:26:22;;;;;;;31.00;21.00;;;;;;;0.18;83.34;99970.17;109381;275;40271;-71
2023/10/19 03:29:02;;;;;;;32.40;20.50;;;;;;;0.18;83.38;99967.44;109416;275;38158;-69
2023/10/19 03:31:45;;;;;;;34.10;21.00;;;;;;;0.20;83.42;99966.05;109390;275;38787;-67
2023/10/19 03:34:24;;;;;;;30.80;20.90;;;;;;;0.23;83.53;99964.67;109397;275;39324;-67
2023/10/19 03:37:05;;;;;;;35.20;21.80;;;;;;;0.25;83.57;99957.64;109388;275;38623;-67
2023/10/19 03:39:41;;;;;;;32.90;22.80;;;;;;;0.26;83.62;99954.89;109421;275;38200;-67
2023/10/19 03:42:21;;;;;;;32.10;22.00;;;;;;;0.27;83.58;99949.05;109370;275;38404;-67
2023/10/19 03:44:57;;;;;;;31.20;21.40;;;;;;;0.26;83.40;99943.91;109386;275;40991;-71
2023/10/19 03:47:34;;;;;;;32.50;21.40;;;;;;;0.24;83.36;99939.27;109409;275;38890;-70
2023/10/19 03:50:20;;;;;;;33.60;21.80;;;;;;;0.25;83.45;99930.53;109285;275;175953;-69
2023/10/19 03:52:57;;;;;;;32.90;22.50;;;;;;;0.27;83.38;99924.70;109350;275;39964;-66
2023/10/19 03:55:38;;;;;;;33.40;23.30;;;;;;;0.28;83.59;99920.23;109408;275;38492;-67
2023/10/19 03:58:16;;;;;;;41.70;23.70;;;;;;;0.26;83.48;99912.52;109378;275;39457;-71
2023/10/19 04:00:51;;;;;;;40.40;24.60;;;;;;;0.24;83.48;99908.58;109374;275;39342;-69
2023/10/19 04:03:30;;;;;;;33.90;21.30;;;;;;;0.23;83.68;99903.77;109414;275;38757;-67
2023/10/19 04:06:14;;;;;;;33.90;22.00;;;;;;;0.25;83.61;99900.16;109352;275;39031;-67
2023/10/19 04:08:50;;;;;;;34.40;21.50;;;;;;;0.28;83.81;99898.78;109410;275;38850;-69
2023/10/19 04:11:32;;;;;;;35.50;23.60;;;;;;;0.27;83.61;99894.50;109396;275;38152;-67
2023/10/19 04:14:15;;;;;;;34.90;22.30;;;;;;;0.26;83.89;99887.81;109364;275;38548;-70
2023/10/19 04:16:56;;;;;;;32.10;21.40;;;;;;;0.26;83.87;99886.10;109560;274;39149;-70
2023/10/19 04:19:35;;;;;;;30.20;20.60;;;;;;;0.26;84.08;99883.01;109596;274;39580;-68
2023/10/19 04:22:22;;;;;;;28.30;20.40;;;;;;;0.30;84.12;99878.36;109527;274;38368;-66
2023/10/19 04:25:01;;;;;;;31.50;21.50;;;;;;;0.31;84.21;99870.80;109544;274;38278;-68
2023/10/19 04:27:43;;;;;;;32.90;23.20;;;;;;;0.34;84.55;99869.59;109537;274;38625;-69
2023/10/19 04:30:21;;;;;;;31.50;21.80;;;;;;;0.35;84.51;99866.16;109589;274;38199;-71
2023/10/19 04:32:57;;;;;;;29.40;19.70;;;;;;;0.35;84.54;99865.99;109594;274;38157;-70
2023/10/19 04:35:41;;;;;;;31.20;20.50;;;;;;;0.36;84.46;99862.55;109550;274;38224;-71
2023/10/19 04:38:17;;;;;;;30.10;21.10;;;;;;;0.38;84.69;99856.36;109538;274;38243;-70
2023/10/19 04:40:51;;;;;;;36.10;23.20;;;;;;;0.41;84.77;99852.92;109602;274;38366;-71
2023/10/19 04:43:28;;;;;;;34.00;22.70;;;;;;;0.42;84.83;99850.67;109567;274;38582;-69
2023/10/19 04:46:12;;;;;;;38.60;23.60;;;;;;;0.41;84.46;99848.96;109484;274;38201;-71
2023/10/19 04:48:47;;;;;;;36.70;22.30;;;;;;;0.38;84.38;99844.52;109511;274;39383;-72
2023/10/19 04:51:22;;;;;;;37.80;24.00;;;;;;;0.39;84.57;99843.48;109536;274;39078;-69
2023/10/19 04:54:00;;;;;;;35.40;25.30;;;;;;;0.42;84.70;99838.50;109527;274;39412;-71
2023/10/19 04:56:35;;;;;;;39.40;26.20;;;;;;;0.43;84.63;99832.48;109474;274;39202;-69
2023/10/19 04:59:15;;;;;;;43.20;28.00;;;;;;;0.43;84.60;99829.06;109616;274;38343;-71
2023/10/19 05:01:51;;;;;;;41.80;27.10;;;;;;;0.43;84.67;99825.96;109541;274;39820;-69
2023/10/19 05:04:27;;;;;;;36.70;24.80;;;;;;;0.44;84.75;99835.05;109630;274;38283;-67
2023/10/19 05:07:12;;;;;;;37.00;23.50;;;;;;;0.45;84.85;99837.11;109604;274;38161;-66
2023/10/19 05:09:50;;;;;;;34.80;23.70;;;;;;;0.46;84.90;99838.98;109651;274;38372;-68
2023/10/19 05:12:29;;;;;;;38.80;23.60;;;;;;;0.49;84.84;99832.96;109534;274;175590;-71
2023/10/19 05:15:05;;;;;;;33.50;23.40;;;;;;;0.50;84.83;99833.31;109574;274;39629;-70
2023/10/19 05:17:45;;;;;;;40.00;24.40;;;;;;;0.50;84.99;99835.88;109559;274;38174;-68
2023/10/19 05:20:20;;;;;;;35.00;23.30;;;;;;;0.49;85.01;99835.71;109636;274;38146;-68
2023/10/19 05:23:04;;;;;;;32.40;22.00;;;;;;;0.49;85.02;99832.45;109572;274;38434;-69
2023/10/19 05:25:39;;;;;;;33.10;22.60;;;;;;;0.51;85.04;99833.64;109531;274;39350;-67
2023/10/19 05:28:22;;;;;;;33.80;22.70;;;;;;;0.56;85.18;99835.85;109420;274;38178;-71
2023/10/19 05:31:05;;;;;;;32.00;22.60;;;;;;;0.62;85.18;99834.95;109587;274;38653;-73
2023/10/19 05:33:40;;;;;;;38.50;24.60;;;;;;;0.69;85.47;99833.18;109616;274;39654;-70
2023/10/19 05:36:19;;;;;;;37.80;24.80;;;;;;;0.73;85.56;99832.30;109602;274;38225;-69
2023/10/19 05:38:55;;;;;;;41.20;24.70;;;;;;;0.74;85.37;99836.26;109692;274;38366;-68
2023/10/19 05:41:37;;;;;;;38.40;24.70;;;;;;;0.79;85.59;99834.84;109612;274;38327;-67
2023/10/19 05:44:21;;;;;;;39.00;25.00;;;;;;;0.85;85.61;99833.95;109691;274;39336;-71
2023/10/19 05:46:56;;;;;;;39.00;26.20;;;;;;;0.90;85.62;99829.09;109607;274;39640;-70
2023/10/19 05:49:35;;;;;;;34.60;23.90;;;;;;;0.97;85.90;99828.52;109613;274;38406;-71
2023/10/19 05:52:18;;;;;;;37.00;23.90;;;;;;;1.02;85.91;99830.53;109564;274;38518;-70
2023/10/19 05:54:57;;;;;;;36.90;23.60;;;;;;;1.08;85.91;99833.41;109574;274;38322;-67
2023/10/19 05:57:32;;;;;;;34.90;23.50;;;;;;;1.14;86.24;99832.52;109604;274;38183;-68
2023/10/19 06:00:14;;;;;;;34.80;23.70;;;;;;;1.21;86.29;99834.16;109581;274;38441;-68
2023/10/19 06:02:53;;;;;;;35.00;22.50;;;;;;;1.28;86.28;99825.85;109653;274;38474;-67
2023/10/19 06:05:30;;;;;;;35.80;25.20;;;;;;;1.36;86.45;99820.63;109378;274;38569;-69
2023/10/19 06:08:09;;;;;;;38.60;24.80;;;;;;;1.43;86.46;99817.82;109551;274;38659;-69
2023/10/19 06:10:46;;;;;;;36.60;24.10;;;;;;;1.51;86.48;99816.17;109593;274;38336;-70
2023/10/19 06:13:33;;;;;;;38.20;23.80;;;;;;;1.56;86.35;99815.95;109655;274;38268;-71
2023/10/19 06:16:29;;;;;;;;;;;;;;;1.62;86.28;99816.08;109569;274;38722;-71
2023/10/19 06:19:11;;;;;;;42.10;25.30;;;;;;;1.66;86.38;99815.00;109552;274;38786;-70
2023/10/19 06:21:46;;;;;;;41.10;24.50;;;;;;;1.76;86.50;99814.55;109566;274;38282;-72
2023/10/19 06:24:20;;;;;;;43.50;27.00;;;;;;;1.87;86.70;99812.88;109625;274;38897;-67
2023/10/19 06:27:00;;;;;;;41.90;26.70;;;;;;;1.98;86.97;99807.58;109566;274;38733;-67
2023/10/19 06:29:40;;;;;;;46.10;28.30;;;;;;;2.12;87.38;99801.89;109380;274;38489;-67
2023/10/19 06:32:23;;;;;;;37.00;25.90;;;;;;;2.29;87.82;99804.42;109561;274;39590;-67
2023/10/19 06:34:59;;;;;;;38.70;24.90;;;;;;;2.49;88.15;99806.39;109573;274;39068;-67
2023/10/19 06:37:46;;;;;;;44.70;26.80;;;;;;;2.69;88.17;99795.93;109543;274;38473;-70
2023/10/19 06:40:21;;;;;;;41.20;27.70;;;;;;;2.91;88.37;99793.52;109590;274;38314;-70
2023/10/19 06:43:02;;;;;;;46.80;29.30;;;;;;;3.09;88.42;99788.76;109604;274;38345;-68
2023/10/19 06:45:38;;;;;;;43.60;26.70;;;;;;;3.26;88.24;99787.09;109377;274;175810;-68
2023/10/19 06:48:15;;;;;;;39.20;25.60;;;;;;;3.43;88.19;99786.95;109547;274;38283;-71
2023/10/19 06:50:53;;;;;;;42.70;26.70;;;;;;;3.61;87.99;99792.98;109522;274;38270;-70
2023/10/19 06:53:31;;;;;;;38.00;25.60;;;;;;;3.79;87.77;99788.17;109579;274;38288;-68
2023/10/19 06:56:12;;;;;;;39.90;26.00;;;;;;;3.94;87.52;99795.80;109540;274;38778;-70
2023/10/19 06:58:51;;;;;;;42.10;27.20;;;;;;;4.09;87.35;99794.80;109501;274;39872;-72
2023/10/19 07:01:26;;;;;;;39.10;25.20;;;;;;;4.25;87.44;99790.15;109452;274;39727;-72
2023/10/19 07:04:05;;;;;;;39.30;24.90;;;;;;;4.41;87.17;99784.79;109541;274;38959;-68
2023/10/19 07:06:45;;;;;;;39.70;25.30;;;;;;;4.59;86.91;99776.45;109531;274;38628;-69
2023/10/19 07:09:22;;;;;;;37.70;26.40;;;;;;;4.76;86.63;99776.20;109514;274;39340;-69
2023/10/19 07:12:01;;;;;;;44.10;28.70;;;;;;;4.93;85.86;99771.64;109511;274;38416;-69
2023/10/19 07:14:36;;;;;;;43.80;30.30;;;;;;;5.05;85.14;99770.66;109511;274;39056;-72
2023/10/19 07:17:12;;;;;;;48.70;28.70;;;;;;;5.14;84.17;99769.39;109558;274;38765;-70
2023/10/19 07:19:53;;;;;;;44.50;28.70;;;;;;;5.23;83.94;99765.36;109544;274;39686;-72
2023/10/19 07:22:32;;;;;;;40.30;27.40;;;;;;;5.36;83.84;99761.73;109455;274;38148;-68
2023/10/19 07:25:22;;;;;;;46.00;28.40;;;;;;;5.54;83.58;99759.71;109438;274;38423;-67
2023/10/19 07:27:59;;;;;;;45.30;27.70;;;;;;;5.77;84.15;99758.19;109462;274;39307;-71
2023/10/19 07:30:36;;;;;;;42.10;28.80;;;;;;;6.04;83.62;99747.23;109500;274;38468;-70
2023/10/19 07:33:16;;;;;;;41.50;27.40;;;;;;;6.30;83.47;99735.55;109533;274;38349;-66
2023/10/19 07:35:55;;;;;;;45.20;26.60;;;;;;;6.51;82.19;99726.23;109526;274;39100;-66
2023/10/19 07:38:38;;;;;;;39.00;25.10;;;;;;;6.67;81.17;99726.24;109519;274;38551;-67
2023/10/19 07:41:16;;;;;;;37.90;24.20;;;;;;;6.82;80.16;99730.08;109474;274;39317;-66
2023/10/19 07:43:52;;;;;;;33.30;23.90;;;;;;;6.98;79.75;99725.05;109541;274;37816;-71
2023/10/19 07:46:28;;;;;;;31.50;23.20;;;;;;;7.20;79.40;99721.84;109454;274;38967;-69
2023/10/19 07:49:09;;;;;;;32.40;22.30;;;;;;;7.41;77.46;99725.99;109453;274;38430;-67
2023/10/19 07:51:49;;;;;;;32.60;22.40;;;;;;;7.55;75.91;99724.95;109460;274;40404;-68
2023/10/19 07:54:24;;;;;;;31.40;22.50;;;;;;;7.68;76.04;99716.67;109437;274;39679;-71
2023/10/19 07:57:03;;;;;;;33.20;21.90;;;;;;;7.77;74.99;99711.11;109430;274;38878;-70
2023/10/19 07:59:41;;;;;;;30.00;21.10;;;;;;;7.83;74.47;99707.27;109475;274;38266;-67
2023/10/19 08:02:22;;;;;;;33.60;22.30;;;;;;;7.87;73.79;99704.69;109457;274;38621;-67
2023/10/19 08:05:04;;;;;;;36.80;23.70;;;;;;;7.87;73.25;99698.27;109483;274;38638;-67
2023/10/19 08:07:42;;;;;;;36.50;22.20;;;;;;;7.88;73.42;99690.93;109589;274;38782;-70
2023/10/19 08:10:20;;;;;;;35.40;22.50;;;;;;;7.94;73.47;99691.38;109551;274;38322;-72
2023/10/19 08:12:53;;;;;;;;;;;;;;;8.00;72.76;99693.75;109708;274;38608;-72
2023/10/19 08:15:30;;;;;;;29.90;20.80;;;;;;;7.99;72.63;99696.75;109637;274;38895;-73
2023/10/19 08:18:05;;;;;;;31.10;21.10;;;;;;;8.05;72.34;99694.81;109650;274;39508;-70
2023/10/19 08:20:39;;;;;;;33.20;22.60;;;;;;;8.13;72.73;99693.09;109393;274;41933;-69
2023/10/19 08:23:13;;;;;;;36.40;22.80;;;;;;;8.24;72.63;99683.08;109387;274;38351;-69
2023/10/19 08:25:47;;;;;;;34.50;22.90;;;;;;;8.34;71.76;99679.39;109584;274;38268;-70
2023/10/19 08:28:26;;;;;;;32.90;22.70;;;;;;;8.42;70.74;99671.33;109593;274;38981;-68
2023/10/19 08:31:05;;;;;;;33.40;21.70;;;;;;;8.42;70.00;99669.21;109600;274;38143;-67
2023/10/19 08:33:41;;;;;;;32.90;23.20;;;;;;;8.46;70.08;99668.20;109564;274;38277;-70
2023/10/19 08:36:25;;;;;;;33.70;22.50;;;;;;;8.53;70.51;99667.71;109555;274;38984;-70
2023/10/19 08:39:05;;;;;;;33.40;21.60;;;;;;;8.62;70.17;99660.59;109561;274;39406;-66
2023/10/19 08:41:48;;;;;;;32.60;21.90;;;;;;;8.73;70.17;99656.64;108879;274;902251;-66
2023/10/19 08:44:28;;;;;;;31.40;21.80;;;;;;;8.82;68.60;99650.38;109567;274;40086;-70
2023/10/19 08:47:08;;;;;;;30.50;21.40;;;;;;;8.86;69.33;99642.35;109529;274;38477;-70
2023/10/19 08:49:42;;;;;;;30.40;21.10;;;;;;;8.99;69.41;99639.52;109682;274;39586;-70
2023/10/19 08:52:27;;;;;;;28.40;20.10;;;;;;;9.11;68.52;99629.11;109588;274;38479;-72
2023/10/19 08:55:05;;;;;;;28.20;20.20;;;;;;;9.09;66.95;99629.89;109606;274;38309;-72
2023/10/19 08:57:51;;;;;;;28.10;19.10;;;;;;;9.08;67.43;99626.13;109584;274;38297;-73
2023/10/19 09:00:27;;;;;;;28.70;20.00;;;;;;;9.13;67.69;99624.33;109553;274;38163;-70
2023/10/19 09:03:08;;;;;;;24.60;19.00;;;;;;;9.17;67.34;99621.02;109546;274;38516;-71
2023/10/19 09:05:50;;;;;;;25.70;18.90;;;;;;;9.19;67.19;99621.61;109497;274;38664;-71
2023/10/19 09:08:38;;;;;;;27.00;18.30;;;;;;;9.21;66.78;99618.73;109561;274;39626;-67
2023/10/19 09:11:18;;;;;;;26.50;18.40;;;;;;;9.25;66.86;99621.16;109535;274;38726;-67
2023/10/19 09:13:53;;;;;;;28.30;17.80;;;;;;;9.34;66.42;99614.69;109497;274;38316;-72
2023/10/19 09:16:30;;;;;;;28.90;18.30;;;;;;;9.46;66.89;99615.01;109526;274;38438;-72
2023/10/19 09:19:05;;;;;;;27.00;17.10;;;;;;;9.72;66.96;99603.02;109474;274;38585;-70
2023/10/19 09:21:40;;;;;;;25.90;16.20;;;;;;;10.01;66.52;99595.69;109542;274;38990;-72
2023/10/19 09:24:17;;;;;;;23.60;17.10;;;;;;;10.31;66.07;99591.32;109542;274;38731;-68
2023/10/19 09:26:51;;;;;;;21.40;16.30;;;;;;;10.58;65.68;99588.02;109307;274;175103;-70
2023/10/19 09:29:31;;;;;;;22.40;15.30;;;;;;;10.86;64.04;99580.85;109500;274;38467;-69
2023/10/19 09:32:13;;;;;;;15.80;12.80;;;;;;;11.06;62.60;99573.73;109527;274;38720;-68
2023/10/19 09:35:05;;;;;;;17.10;12.60;;;;;;;11.18;62.00;99569.92;109683;274;38596;-70
2023/10/19 09:37:53;;;;;;;16.50;12.80;;;;;;;11.21;60.49;99556.88;109690;274;39704;-72
2023/10/19 09:40:29;;;;;;;16.00;11.20;;;;;;;11.21;60.00;99551.13;109674;274;38254;-74
2023/10/19 09:43:12;;;;;;;14.10;10.80;;;;;;;11.23;60.02;99545.40;109622;274;38330;-67
2023/10/19 09:45:53;;;;;;;12.00;10.70;;;;;;;11.30;59.98;99541.17;109674;274;39832;-66
2023/10/19 09:48:37;;;;;;;13.40;10.20;;;;;;;11.31;60.22;99532.22;109663;274;39066;-71
2023/10/19 09:51:12;;;;;;;16.00;10.70;;;;;;;11.34;60.70;99521.55;109599;274;39455;-70
2023/10/19 09:53:48;;;;;;;14.80;10.10;;;;;;;11.32;58.58;99513.64;109618;274;39376;-71
2023/10/19 09:56:31;;;;;;;15.60;11.00;;;;;;;11.21;58.11;99509.91;109598;274;38414;-70
2023/10/19 09:59:15;;;;;;;13.80;9.60;;;;;;;11.15;58.58;99510.04;109644;274;38336;-69
2023/10/19 10:02:12;;;;;;;12.00;9.50;;;;;;;11.17;59.29;99504.52;109593;274;39128;-71
2023/10/19 10:04:49;;;;;;;14.60;9.80;;;;;;;11.19;59.13;99502.34;109671;274;39270;-71
2023/10/19 10:07:31;;;;;;;12.60;9.90;;;;;;;11.19;58.97;99498.33;109516;274;38799;-69
2023/10/19 10:10:07;;;;;;;11.70;9.10;;;;;;;11.15;58.39;99495.35;109658;274;39631;-70
2023/10/19 10:12:45;;;;;;;11.10;9.10;;;;;;;11.10;58.03;99485.35;109657;274;38779;-71
2023/10/19 10:15:20;;;;;;;11.20;8.70;;;;;;;11.05;57.90;99473.05;109581;274;38900;-70
2023/10/19 10:18:01;;;;;;;11.60;8.60;;;;;;;11.05;58.10;99471.64;109666;274;38270;-69
2023/10/19 10:20:44;;;;;;;12.10;9.60;;;;;;;11.04;57.42;99466.33;109574;274;38359;-69
2023/10/19 10:23:26;;;;;;;11.90;8.70;;;;;;;10.96;57.07;99470.74;109589;274;38617;-70
2023/10/19 10:26:04;;;;;;;11.90;8.30;;;;;;;10.92;57.84;99466.10;109557;274;38525;-71
2023/10/19 10:28:43;;;;;;;15.60;9.90;;;;;;;10.91;57.91;99466.48;109645;274;38157;-70
2023/10/19 10:31:22;;;;;;;10.60;8.90;;;;;;;10.90;57.34;99459.75;109573;274;39393;-70
2023/10/19 10:33:56;;;;;;;12.70;9.40;;;;;;;10.84;57.18;99447.30;109445;274;175382;-71
2023/10/19 10:36:30;;;;;;;11.40;8.20;;;;;;;10.80;57.42;99446.27;109592;274;39602;-71
2023/10/19 10:39:14;;;;;;;12.30;9.40;;;;;;;10.80;57.78;99448.77;109576;274;39685;-67
2023/10/19 10:41:58;;;;;;;14.00;8.90;;;;;;;10.78;56.36;99455.16;109584;274;38308;-66
2023/10/19 10:44:55;;;;;;;12.90;9.70;;;;;;;10.69;56.27;99446.74;109583;274;39432;-72
2023/10/19 10:47:34;;;;;;;12.60;9.20;;;;;;;10.66;57.12;99439.91;109496;274;39945;-68
2023/10/19 10:50:26;;;;;;;15.70;9.10;;;;;;;10.70;57.14;99436.77;107852;274;2108032;-67
2023/10/19 10:53:02;;;;;;;10.80;9.50;;;;;;;10.71;56.84;99434.58;109422;274;175399;-70
2023/10/19 10:55:39;;;;;;;11.80;9.10;;;;;;;10.71;56.56;99432.30;109556;274;38962;-70
2023/10/19 10:58:19;;;;;;;12.30;9.40;;;;;;;10.69;56.43;99421.23;109560;274;38469;-67
2023/10/19 11:01:02;;;;;;;12.00;9.20;;;;;;;10.68;56.63;99415.23;109525;274;38267;-67
2023/10/19 11:03:48;;;;;;;13.40;9.60;;;;;;;10.67;56.94;99407.40;109483;274;39504;-70
2023/10/19 11:06:29;;;;;;;10.90;8.80;;;;;;;10.67;57.24;99401.31;109548;274;38257;-71
2023/10/19 11:09:19;;;;;;;13.70;9.80;;;;;;;10.66;56.86;99398.73;109540;274;38253;-71
2023/10/19 11:11:56;;;;;;;13.40;9.40;;;;;;;10.63;56.48;99387.20;109503;274;38615;-70
2023/10/19 11:14:31;;;;;;;13.10;9.10;;;;;;;10.61;57.04;99379.48;109505;274;38458;-68
2023/10/19 11:17:28;;;;;;;11.10;8.80;;;;;;;10.63;57.09;99377.98;109458;274;39669;-67
2023/10/19 11:20:04;;;;;;;12.30;9.10;;;;;;;10.63;56.74;99373.97;109485;274;39473;-67
2023/10/19 11:22:52;;;;;;;13.30;9.00;;;;;;;10.64;56.79;99372.34;109516;274;38574;-69
2023/10/19 11:25:31;;;;;;;11.90;8.90;;;;;;;10.68;57.22;99370.73;109498;274;38788;-70
2023/10/19 11:28:28;;;;;;;11.20;8.90;;;;;;;10.73;57.40;99365.04;109516;274;38307;-68
2023/10/19 11:31:37;;;;;;;12.10;9.10;;;;;;;10.79;57.07;99354.98;109456;274;38572;-69
2023/10/19 11:34:18;;;;;;;12.00;8.90;;;;;;;10.84;57.24;99353.29;109491;274;38943;-69
2023/10/19 11:37:05;;;;;;;14.50;9.50;;;;;;;10.85;56.47;99351.11;109477;274;38315;-69
2023/10/19 11:39:43;;;;;;;12.10;9.50;;;;;;;10.85;56.61;99348.86;109534;274;39328;-68
2023/10/19 11:42:20;;;;;;;16.70;9.20;;;;;;;10.86;56.72;99344.77;109497;274;38334;-68
2023/10/19 11:44:58;;;;;;;11.20;9.10;;;;;;;10.87;56.45;99340.90;109488;274;39686;-70
2023/10/19 11:47:34;;;;;;;11.60;8.60;;;;;;;10.84;56.55;99333.55;109550;274;38462;-70
2023/10/19 11:50:15;;;;;;;12.60;8.60;;;;;;;10.84;56.64;99331.64;109512;274;39599;-68
2023/10/19 11:52:53;;;;;;;13.00;9.70;;;;;;;10.83;56.04;99330.99;109467;274;38330;-68
2023/10/19 11:55:31;;;;;;;12.70;9.40;;;;;;;10.82;56.40;99323.55;109384;274;38307;-67
2023/10/19 11:58:13;;;;;;;10.80;8.70;;;;;;;10.80;56.04;99319.47;109442;274;38303;-67
2023/10/19 12:00:56;;;;;;;11.30;9.50;;;;;;;10.78;56.18;99325.19;109440;274;37853;-66
2023/10/19 12:03:31;;;;;;;11.10;8.40;;;;;;;10.76;56.68;99332.41;109449;274;38203;-69
2023/10/19 12:06:07;;;;;;;11.50;8.60;;;;;;;10.78;57.10;99325.85;109442;274;38158;-69
2023/10/19 12:08:44;;;;;;;12.20;8.90;;;;;;;10.82;57.30;99327.77;109453;274;40182;-67
2023/10/19 12:11:24;;;;;;;14.40;9.00;;;;;;;10.84;56.82;99334.61;109375;274;38751;-67
2023/10/19 12:14:09;;;;;;;11.30;9.20;;;;;;;10.84;56.29;99332.88;109486;274;40115;-67
2023/10/19 12:16:45;;;;;;;14.00;8.60;;;;;;;10.84;56.61;99334.23;109530;274;38615;-67
2023/10/19 12:19:21;;;;;;;11.00;8.20;;;;;;;10.88;56.82;99332.13;109602;274;38700;-67
2023/10/19 12:22:00;;;;;;;13.40;8.90;;;;;;;10.92;56.49;99330.13;109656;274;39617;-67
2023/10/19 12:24:37;;;;;;;11.50;8.60;;;;;;;10.95;56.40;99330.32;109661;274;38165;-67